M I D A S
Marine Information and Data Acquisition System
Tripno 2072 of the Zeeleeuw from 2011-04-05 07:06:15 to 2011-04-05 15:38:27
Back to CruiseResearch ActivitiesStationsMapUnderway DataData graphs

EquipmentUnitsComment
TimeDGPSUTC
LatitudeDGPSDM.mWGS84
LongitudeDGPSDM.mWGS84
HeadingGyrodeg 
SOGDGPSknotsSpeed over ground
COGDGPSdegCourse over ground
DepthEcho soundermeters200 kHz
Missing or incorrect values are displayed as -999
Navigation data collected by the RV Zeeleeuw from 2011-04-05 07:08:43 to 2011-04-05 15:46:28
Time Latitude Longitude Heading SOG COG Depth
2011-04-05 07:09:48 51°13.68 2°55.878 102.1 4 284 -999
2011-04-05 07:10:48 51°13.689 2°55.778 83.4 3.2 271 -999
2011-04-05 07:11:47 51°13.691 2°55.738 51.6 0.4 327 11.4
2011-04-05 07:12:44 51°13.714 2°55.737 354.3 2.3 346 11
2011-04-05 07:13:44 51°13.784 2°55.677 331 7 330 9.7
2011-04-05 07:14:46 51°13.917 2°55.57 336.9 9.8 334 9.5
2011-04-05 07:15:47 51°14.07 2°55.455 336.3 10.2 334 -999
2011-04-05 07:16:47 51°14.227 2°55.324 333.3 11 329 9.3
2011-04-05 07:17:47 51°14.387 2°55.164 330.4 11.8 328 9.1
2011-04-05 07:18:47 51°14.558 2°54.991 329.5 12.7 323 11
2011-04-05 07:19:45 51°14.668 2°54.715 293 13.2 283 9.7
2011-04-05 07:20:44 51°14.622 2°54.384 240.7 13.5 238 8.3
2011-04-05 07:21:44 51°14.499 2°54.077 240.9 13.8 240 8
2011-04-05 07:22:44 51°14.361 2°53.784 228.6 13.8 229 7.7
2011-04-05 07:23:44 51°14.215 2°53.501 233.7 13.9 235 7.8
2011-04-05 07:24:44 51°14.101 2°53.181 239.1 14 236 8.2
2011-04-05 07:25:44 51°13.965 2°52.881 238.1 14 239 8.3
2011-04-05 07:26:44 51°13.837 2°52.572 233.4 14 233 8.4
2011-04-05 07:27:44 51°13.696 2°52.276 233.7 14 233 8.5
2011-04-05 07:28:44 51°13.568 2°51.966 235.2 14 234 8.6
2011-04-05 07:29:44 51°13.439 2°51.656 238.9 14.1 237 8.8
2011-04-05 07:30:44 51°13.303 2°51.353 235.2 14.1 236 8.9
2011-04-05 07:31:44 51°13.175 2°51.039 235.2 14.1 234 8.9
2011-04-05 07:32:44 51°13.042 2°50.733 238.5 14 238 9
2011-04-05 07:33:44 51°12.911 2°50.424 238 14.1 238 9.2
2011-04-05 07:34:43 51°12.787 2°50.116 238.2 14.1 238 9.1
2011-04-05 07:35:44 51°12.672 2°49.786 241 14 238 9.1
2011-04-05 07:36:43 51°12.553 2°49.473 242.3 14 241 9
2011-04-05 07:37:43 51°12.433 2°49.157 237.9 14 237 8.8
2011-04-05 07:38:43 51°12.336 2°48.821 253.4 14 252 9.1
2011-04-05 07:39:43 51°12.254 2°48.471 251.1 14 248 9.4
2011-04-05 07:40:43 51°12.168 2°48.122 252.4 14.1 250 9.7
2011-04-05 07:41:43 51°12.086 2°47.771 251.5 14.1 250 10.2
2011-04-05 07:42:43 51°12.001 2°47.422 249 14.2 248 10.5
2011-04-05 07:43:44 51°11.917 2°47.064 250.2 14.2 249 10.6
2011-04-05 07:44:43 51°11.833 2°46.718 250 14.2 249 10.9
2011-04-05 07:45:44 51°11.748 2°46.358 250.4 14.2 249 11
2011-04-05 07:46:44 51°11.668 2°46.004 251.2 14.2 249 10.9
2011-04-05 07:47:44 51°11.583 2°45.654 249.8 14.2 248 10.9
2011-04-05 07:48:44 51°11.5 2°45.303 250.7 14.2 250 10.9
2011-04-05 07:49:44 51°11.415 2°44.953 249.9 14.3 250 10.9
2011-04-05 07:50:44 51°11.332 2°44.601 249.2 14.2 249 10.9
2011-04-05 07:51:44 51°11.251 2°44.25 249.5 14.1 249 10.9
2011-04-05 07:52:44 51°11.171 2°43.898 251.1 14.2 250 10.8
2011-04-05 07:53:43 51°11.098 2°43.55 258.7 14 258 10.9
2011-04-05 07:54:43 51°11.053 2°43.184 259.9 14.1 258 11
2011-04-05 07:55:43 51°11.028 2°42.814 272.5 13.2 270 11
2011-04-05 07:56:44 51°11.017 2°42.564 259.3 6.6 258 11.2
2011-04-05 07:57:44 51°11.013 2°42.411 288.8 5.4 283 11.4
2011-04-05 07:58:44 51°11.045 2°42.28 296.7 5.2 288 11.2
2011-04-05 07:59:44 51°11.062 2°42.144 282.4 5.2 277 11.1
2011-04-05 08:00:44 51°11.08 2°42.029 301.9 3.5 292 11
2011-04-05 08:01:44 51°11.095 2°41.973 304.9 1.6 292 11
2011-04-05 08:02:44 51°11.102 2°41.935 292.9 1.4 284 10.9
2011-04-05 08:03:43 51°11.107 2°41.901 285.9 1.2 283 10.9
2011-04-05 08:04:43 51°11.111 2°41.872 284.5 1.1 279 10.8
2011-04-05 08:05:44 51°11.115 2°41.846 289.2 0.9 287 10.8
2011-04-05 08:06:44 51°11.12 2°41.825 295.5 0.8 297 10.9
2011-04-05 08:07:44 51°11.126 2°41.808 305.9 0.7 297 10.7
2011-04-05 08:08:44 51°11.131 2°41.794 312.8 0.6 298 10.7
2011-04-05 08:09:44 51°11.135 2°41.779 314.1 0.6 294 10.9
2011-04-05 08:10:44 51°11.138 2°41.766 314.4 0.6 298 10.8
2011-04-05 08:11:44 51°11.141 2°41.752 314.4 0.5 297 11
2011-04-05 08:12:43 51°11.145 2°41.739 315 0.5 292 10.7
2011-04-05 08:13:43 51°11.149 2°41.726 313.6 0.5 293 11.1
2011-04-05 08:14:44 51°11.153 2°41.713 312.9 0.5 296 10.9
2011-04-05 08:15:44 51°11.157 2°41.702 314.2 0.4 303 10.7
2011-04-05 08:16:44 51°11.16 2°41.692 312 0.4 286 10.9
2011-04-05 08:17:44 51°11.162 2°41.681 310.7 0.4 292 10.9
2011-04-05 08:18:44 51°11.165 2°41.672 314.1 0.3 285 10.9
2011-04-05 08:19:44 51°11.167 2°41.663 316.3 0.4 296 11
2011-04-05 08:20:43 51°11.169 2°41.654 317.5 0.4 295 10.9
2011-04-05 08:21:44 51°11.172 2°41.645 319 0.4 291 10.9
2011-04-05 08:22:44 51°11.174 2°41.634 317.3 0.5 289 10.9
2011-04-05 08:23:44 51°11.177 2°41.622 315.7 0.5 290 11.1
2011-04-05 08:24:44 51°11.179 2°41.612 316.2 0.4 294 11.1
2011-04-05 08:25:44 51°11.181 2°41.602 316.1 0.4 287 11.1
2011-04-05 08:26:44 51°11.182 2°41.593 316.8 0.3 288 11.1
2011-04-05 08:27:44 51°11.183 2°41.584 318 0.4 285 11.1
2011-04-05 08:28:44 51°11.185 2°41.575 320.5 0.4 282 11.1
2011-04-05 08:29:44 51°11.186 2°41.565 320.9 0.4 286 11.2
2011-04-05 08:30:43 51°11.188 2°41.556 319.6 0.4 291 11.1
2011-04-05 08:31:43 51°11.19 2°41.547 319.3 0.4 292 11.1
2011-04-05 08:32:44 51°11.193 2°41.537 316.2 0.5 300 11.3
2011-04-05 08:33:44 51°11.196 2°41.527 315.1 0.4 293 11.2
2011-04-05 08:34:44 51°11.199 2°41.518 313.7 0.4 300 11.3
2011-04-05 08:35:44 51°11.201 2°41.509 315.3 0.4 290 11.1
2011-04-05 08:36:44 51°11.211 2°41.458 281.1 4.7 269 11.2
2011-04-05 08:37:44 51°11.162 2°41.358 198.6 5 199 11.5
2011-04-05 08:38:44 51°11.084 2°41.43 119.8 6.7 121 11.2
2011-04-05 08:39:43 51°11.06 2°41.614 90.9 7.7 92 11.2
2011-04-05 08:40:43 51°11.06 2°41.813 89 6.8 91 11.2
2011-04-05 08:41:44 51°11.056 2°41.973 83.8 4.6 81 11.3
2011-04-05 08:42:44 51°11.094 2°42.031 27.7 2.6 16 11.3
2011-04-05 08:43:44 51°11.12 2°42.028 358.1 0.8 306 11.3
2011-04-05 08:44:43 51°11.125 2°42.015 336.9 0.6 299 11.1
2011-04-05 08:45:44 51°11.13 2°42 322.8 0.6 291 11.3
2011-04-05 08:46:44 51°11.133 2°41.987 315.2 0.5 292 11.2
2011-04-05 08:47:44 51°11.135 2°41.975 313.2 0.4 287 11.1
2011-04-05 08:48:44 51°11.137 2°41.965 315.5 0.4 293 11
2011-04-05 08:49:43 51°11.138 2°41.958 319.9 0.2 297 11.4
2011-04-05 08:50:44 51°11.139 2°41.952 324.5 0.2 283 11.3
2011-04-05 08:51:44 51°11.139 2°41.947 328.2 0.1 273 11
2011-04-05 08:52:43 51°11.161 2°41.931 358.2 2.9 344 11.2
2011-04-05 08:53:44 51°11.199 2°41.862 294 4.2 284 11.3
2011-04-05 08:54:43 51°11.18 2°41.76 229.6 3.5 232 11.2
2011-04-05 08:55:43 51°11.141 2°41.704 211.5 3 216 11.3
2011-04-05 08:56:44 51°11.098 2°41.652 217.3 3.4 220 11.2
2011-04-05 08:57:43 51°11.058 2°41.585 226.6 3.6 229 11.5
2011-04-05 08:58:43 51°11.021 2°41.51 232.8 3.6 236 11.5
2011-04-05 08:59:44 51°10.989 2°41.429 237.2 3.5 240 11.5
2011-04-05 09:00:43 51°10.961 2°41.348 238.2 3.5 240 11.7
2011-04-05 09:01:44 51°10.931 2°41.268 237.2 3.4 240 11.8
2011-04-05 09:02:43 51°10.905 2°41.193 238.4 3.3 241 11.8
2011-04-05 09:03:43 51°10.877 2°41.119 235.2 3.2 238 11.8
2011-04-05 09:04:44 51°10.848 2°41.044 237 3.3 240 12
2011-04-05 09:05:43 51°10.821 2°40.97 236 3.3 238 11.9
2011-04-05 09:06:44 51°10.791 2°40.895 234.5 3.3 238 12
2011-04-05 09:07:44 51°10.763 2°40.82 236.3 3.3 238 12.3
2011-04-05 09:08:43 51°10.732 2°40.746 233.8 3.4 236 12.2
2011-04-05 09:09:44 51°10.699 2°40.671 228.6 3.3 231 12.3
2011-04-05 09:10:43 51°10.658 2°40.618 204.9 3.1 212 12.4
2011-04-05 09:11:43 51°10.619 2°40.566 228 2.9 228 12.6
2011-04-05 09:12:44 51°10.588 2°40.504 231.9 2.9 235 12.7
2011-04-05 09:13:43 51°10.568 2°40.443 254.8 2.4 256 12.8
2011-04-05 09:14:44 51°10.572 2°40.383 296.4 2.4 290 12.8
2011-04-05 09:15:44 51°10.585 2°40.335 303.2 1.7 295 12.9
2011-04-05 09:16:43 51°10.595 2°40.304 301.8 1.1 294 13.1
2011-04-05 09:17:44 51°10.606 2°40.269 303.7 2.5 300 13.1
2011-04-05 09:18:43 51°10.641 2°40.145 295 5.2 290 13.4
2011-04-05 09:19:43 51°10.66 2°40.048 289.6 2.9 286 13.6
2011-04-05 09:20:44 51°10.672 2°39.991 291.4 1.7 291 13.8
2011-04-05 09:21:43 51°10.68 2°39.958 294.4 1.3 291 13.8
2011-04-05 09:22:43 51°10.684 2°39.899 262 2.9 260 13.9
2011-04-05 09:23:44 51°10.655 2°39.836 204.1 3 205 14.3
2011-04-05 09:24:43 51°10.599 2°39.868 136.1 6.2 135 14
2011-04-05 09:25:44 51°10.545 2°40.093 99.8 11.3 99 13.2
2011-04-05 09:26:43 51°10.521 2°40.407 92.6 12.3 91 12.6
2011-04-05 09:27:43 51°10.566 2°40.718 73.2 12.1 72 12.1
2011-04-05 09:28:44 51°10.629 2°41.03 71.9 12.2 72 12
2011-04-05 09:29:43 51°10.689 2°41.331 73.6 12.1 75 11.9
2011-04-05 09:30:44 51°10.746 2°41.644 74.1 12.1 73 12
2011-04-05 09:31:44 51°10.802 2°41.954 74.1 12.2 75 11.9
2011-04-05 09:32:43 51°10.854 2°42.259 75.8 12.1 75 11.9
2011-04-05 09:33:44 51°10.911 2°42.574 76.1 12.2 75 12
2011-04-05 09:34:44 51°10.968 2°42.883 73.3 12.2 72 11.9
2011-04-05 09:35:43 51°11.022 2°43.188 74.8 12.1 74 11.8
2011-04-05 09:36:44 51°11.078 2°43.503 75.2 12.2 73 11.7
2011-04-05 09:37:43 51°11.143 2°43.804 70.4 12.2 68 11.9
2011-04-05 09:38:43 51°11.213 2°44.106 71 12.1 67 11.9
2011-04-05 09:39:43 51°11.288 2°44.406 71.9 12.3 69 11.9
2011-04-05 09:40:43 51°11.361 2°44.707 69.9 12.3 68 12
2011-04-05 09:41:43 51°11.436 2°45.007 68.6 12.2 68 12.1
2011-04-05 09:42:43 51°11.507 2°45.308 70.7 12.1 70 12.1
2011-04-05 09:43:43 51°11.582 2°45.608 70.6 12.1 70 12
2011-04-05 09:44:43 51°11.654 2°45.907 71 12.1 70 12
2011-04-05 09:45:43 51°11.723 2°46.207 70.1 12.3 69 12.1
2011-04-05 09:46:43 51°11.796 2°46.508 71 12.2 68 12
2011-04-05 09:47:44 51°11.868 2°46.815 70.8 12.3 70 12.1
2011-04-05 09:48:44 51°11.964 2°47.101 63 12.3 61 12
2011-04-05 09:49:44 51°12.056 2°47.391 64.5 12.3 62 12
2011-04-05 09:50:44 51°12.149 2°47.681 64.3 12.4 64 12
2011-04-05 09:51:44 51°12.24 2°47.973 65 12.3 62 11.9
2011-04-05 09:52:44 51°12.33 2°48.266 65.3 12.2 64 11.7
2011-04-05 09:53:44 51°12.417 2°48.561 64.9 12.4 65 11.6
2011-04-05 09:54:44 51°12.507 2°48.854 66 12.3 63 11.6
2011-04-05 09:55:44 51°12.598 2°49.146 64.5 12.2 63 11.4
2011-04-05 09:56:44 51°12.705 2°49.424 59.7 12.4 57 11.2
2011-04-05 09:57:44 51°12.814 2°49.701 61 12.3 59 11.1
2011-04-05 09:58:44 51°12.92 2°49.981 61.2 12.4 61 10.9
2011-04-05 09:59:44 51°13.024 2°50.262 63.8 12.3 62 10.8
2011-04-05 10:00:44 51°13.125 2°50.547 60.9 12.3 61 10.7
2011-04-05 10:01:44 51°13.224 2°50.835 62.6 12.4 60 10.6
2011-04-05 10:02:44 51°13.327 2°51.118 61 12.4 60 10.3
2011-04-05 10:03:44 51°13.428 2°51.405 62.1 12.5 60 10.4
2011-04-05 10:04:44 51°13.526 2°51.693 64.3 12.4 63 10.1
2011-04-05 10:05:44 51°13.629 2°51.979 59.1 12.4 60 10
2011-04-05 10:06:44 51°13.737 2°52.263 59.2 12.7 57 9.9
2011-04-05 10:07:44 51°13.849 2°52.548 61.8 12.6 60 9.9
2011-04-05 10:08:44 51°13.963 2°52.83 58.3 12.6 56 9.6
2011-04-05 10:09:44 51°14.076 2°53.112 60.3 12.7 58 9.7
2011-04-05 10:10:44 51°14.184 2°53.398 61.5 12.7 60 9.2
2011-04-05 10:11:44 51°14.313 2°53.657 47.1 12.5 42 9
2011-04-05 10:12:43 51°14.474 2°53.862 38.2 12.6 33 9.3
2011-04-05 10:13:43 51°14.661 2°54.024 29.9 12.8 25 10.3
2011-04-05 10:14:43 51°14.862 2°54.121 16.1 12.6 13 8.9
2011-04-05 10:15:43 51°15.068 2°54.176 11.7 12.5 7 9
2011-04-05 10:16:43 51°15.28 2°54.206 10.8 12.7 4 9.9
2011-04-05 10:17:43 51°15.487 2°54.243 10.5 12.5 7 9.8
2011-04-05 10:18:44 51°15.701 2°54.284 10.6 12.9 7 10.1
2011-04-05 10:19:44 51°15.902 2°54.325 10.2 10.1 7 10.7
2011-04-05 10:20:43 51°16.022 2°54.335 3.8 5.8 -999 10.9
2011-04-05 10:21:43 51°16.107 2°54.341 6.1 4.6 4 11.1
2011-04-05 10:22:44 51°16.178 2°54.352 6.9 3.7 5 11.2
2011-04-05 10:23:44 51°16.226 2°54.354 355.7 2.3 355 11.2
2011-04-05 10:24:44 51°16.255 2°54.344 341.4 1.4 344 11.1
2011-04-05 10:25:44 51°16.273 2°54.337 330.4 0.9 343 11.4
2011-04-05 10:26:44 51°16.283 2°54.334 327.2 0.5 357 11.6
2011-04-05 10:27:44 51°16.29 2°54.338 328.3 0.4 18 11.5
2011-04-05 10:28:44 51°16.296 2°54.343 323.3 0.4 54 11.2
2011-04-05 10:29:44 51°16.299 2°54.352 323.4 0.5 58 11.4
2011-04-05 10:30:44 51°16.302 2°54.363 327.5 0.4 78 11.4
2011-04-05 10:31:44 51°16.304 2°54.376 328.9 0.5 72 11.4
2011-04-05 10:32:44 51°16.306 2°54.39 334.4 0.4 82 11.3
2011-04-05 10:33:44 51°16.308 2°54.404 333.3 0.5 80 11.6
2011-04-05 10:34:44 51°16.311 2°54.418 331.4 0.5 75 11.7
2011-04-05 10:35:44 51°16.313 2°54.432 330.5 0.5 80 11.4
2011-04-05 10:36:44 51°16.316 2°54.448 332.5 0.6 79 11.7
2011-04-05 10:37:44 51°16.317 2°54.462 334.9 0.6 84 11.7
2011-04-05 10:38:44 51°16.318 2°54.477 337 0.5 82 11.6
2011-04-05 10:39:44 51°16.321 2°54.493 334.7 0.6 72 11.5
2011-04-05 10:40:44 51°16.324 2°54.507 330.3 0.5 70 11.5
2011-04-05 10:41:44 51°16.328 2°54.522 326.8 0.6 74 11.5
2011-04-05 10:42:44 51°16.332 2°54.539 325.8 0.7 76 11.5
2011-04-05 10:43:44 51°16.335 2°54.558 327.7 0.9 80 11.1
2011-04-05 10:44:44 51°16.338 2°54.579 333 0.8 76 11.8
2011-04-05 10:45:44 51°16.34 2°54.599 333.7 0.8 77 12
2011-04-05 10:46:44 51°16.343 2°54.617 333.2 0.7 75 11.5
2011-04-05 10:47:43 51°16.346 2°54.635 333.4 0.7 71 11.6
2011-04-05 10:48:43 51°16.35 2°54.653 333.6 0.7 76 11.8
2011-04-05 10:49:43 51°16.353 2°54.672 334.3 0.7 74 11.9
2011-04-05 10:50:43 51°16.356 2°54.692 334.8 0.8 70 11.7
2011-04-05 10:51:43 51°16.361 2°54.711 331.5 0.7 66 11.8
2011-04-05 10:52:43 51°16.367 2°54.73 326.2 0.8 61 12
2011-04-05 10:53:43 51°16.374 2°54.749 322.3 0.8 64 11.6
2011-04-05 10:54:43 51°16.38 2°54.77 323.3 0.9 71 11.7
2011-04-05 10:55:44 51°16.386 2°54.795 327.7 1 79 11.5
2011-04-05 10:56:44 51°16.389 2°54.82 333.2 1 80 11.7
2011-04-05 10:57:43 51°16.392 2°54.845 335.2 0.9 73 11.9
2011-04-05 10:58:43 51°16.397 2°54.869 332.5 1.1 70 11.8
2011-04-05 10:59:44 51°16.402 2°54.895 331.8 1 68 11.7
2011-04-05 11:00:44 51°16.408 2°54.919 328.6 1 65 11.9
2011-04-05 11:01:43 51°16.426 2°54.919 301 2.2 311 11.6
2011-04-05 11:02:44 51°16.423 2°54.841 246.4 4.7 244 12
2011-04-05 11:03:43 51°16.355 2°54.685 236.2 8.6 235 11.8
2011-04-05 11:04:43 51°16.273 2°54.491 231.1 9 227 12
2011-04-05 11:05:43 51°16.164 2°54.324 228.7 9.1 227 12
2011-04-05 11:06:44 51°16.077 2°54.132 242.5 7 243 11.9
2011-04-05 11:07:44 51°16.065 2°54.04 278.1 1.3 302 11.8
2011-04-05 11:08:44 51°16.079 2°54.044 313.5 0.9 28 12.1
2011-04-05 11:09:44 51°16.092 2°54.062 318.7 1 49 12.1
2011-04-05 11:10:44 51°16.102 2°54.083 320.6 1 59 12
2011-04-05 11:11:44 51°16.112 2°54.11 322.3 1.3 63 12.5
2011-04-05 11:12:44 51°16.119 2°54.14 327.8 1.2 68 11.9
2011-04-05 11:13:44 51°16.126 2°54.171 330.2 1.4 71 12.2
2011-04-05 11:14:44 51°16.133 2°54.204 332.4 1.3 72 12.1
2011-04-05 11:15:44 51°16.141 2°54.236 331.1 1.3 69 12.3
2011-04-05 11:16:44 51°16.149 2°54.269 330.1 1.2 68 12.2
2011-04-05 11:17:44 51°16.158 2°54.303 331.5 1.3 66 12
2011-04-05 11:18:44 51°16.167 2°54.335 330.3 1.4 65 12.5
2011-04-05 11:19:44 51°16.176 2°54.369 331.5 1.3 68 12.1
2011-04-05 11:20:44 51°16.185 2°54.406 329.4 1.5 67 12.3
2011-04-05 11:21:44 51°16.194 2°54.442 327.6 1.5 72 12.7
2011-04-05 11:22:44 51°16.214 2°54.469 329.5 2.8 358 12.7
2011-04-05 11:23:43 51°16.309 2°54.401 326.8 8.9 331 12.5
2011-04-05 11:24:43 51°16.448 2°54.263 317.6 10.4 320 12.7
2011-04-05 11:25:43 51°16.587 2°54.057 313.3 12.1 317 12.6
2011-04-05 11:26:43 51°16.735 2°53.833 313.6 12.4 317 12.8
2011-04-05 11:27:43 51°16.883 2°53.609 313.6 12.3 316 12.7
2011-04-05 11:28:43 51°17.031 2°53.392 315.3 12.1 318 9.7
2011-04-05 11:29:43 51°17.212 2°53.267 0.3 12.6 10 10.6
2011-04-05 11:30:43 51°17.39 2°53.467 43.4 13.8 41 10.5
2011-04-05 11:31:44 51°17.553 2°53.725 42.2 13.6 46 10.9
2011-04-05 11:32:43 51°17.722 2°53.958 40.1 13.8 39 11
2011-04-05 11:33:44 51°17.898 2°54.197 38.6 13.8 38 11
2011-04-05 11:34:44 51°18.068 2°54.436 40.5 13.7 38 11.4
2011-04-05 11:35:44 51°18.24 2°54.668 39.9 13.7 37 11.3
2011-04-05 11:36:44 51°18.365 2°54.832 30.1 7.4 33 11.7
2011-04-05 11:37:44 51°18.459 2°54.911 18.4 5.9 26 12.1
2011-04-05 11:38:44 51°18.534 2°54.986 31.7 4.7 42 12.3
2011-04-05 11:39:44 51°18.577 2°55.077 54.5 4.2 61 12.6
2011-04-05 11:40:44 51°18.609 2°55.171 57.7 3.8 62 12.3
2011-04-05 11:41:44 51°18.637 2°55.258 60.2 3.6 64 12.8
2011-04-05 11:42:43 51°18.665 2°55.342 56.7 3.5 61 12.5
2011-04-05 11:43:43 51°18.697 2°55.422 49.5 3.5 56 12.5
2011-04-05 11:44:43 51°18.731 2°55.499 44.9 3.4 53 12.6
2011-04-05 11:45:43 51°18.766 2°55.571 38.7 3.6 49 12.7
2011-04-05 11:46:43 51°18.809 2°55.647 37.2 3.9 48 12.4
2011-04-05 11:47:43 51°18.854 2°55.728 38.8 4.2 47 12.9
2011-04-05 11:48:44 51°18.901 2°55.813 40.8 4.1 49 12.9
2011-04-05 11:49:43 51°18.945 2°55.897 42.2 4.3 52 12.8
2011-04-05 11:50:44 51°18.99 2°55.986 43 4.2 51 12.8
2011-04-05 11:51:44 51°19.034 2°56.073 46.7 4.3 51 12.9
2011-04-05 11:52:43 51°19.076 2°56.163 49.8 4.3 52 12.6
2011-04-05 11:53:44 51°19.108 2°56.259 74.1 4 69 12.7
2011-04-05 11:54:44 51°19.127 2°56.357 85.4 3.7 76 12.8
2011-04-05 11:55:43 51°19.139 2°56.448 99 3.4 81 13
2011-04-05 11:56:44 51°19.144 2°56.54 113.3 3.6 91 12.7
2011-04-05 11:57:44 51°19.131 2°56.667 118 6.5 103 12.9
2011-04-05 11:58:43 51°19.113 2°56.795 124.8 4 100 12.7
2011-04-05 11:59:43 51°19.106 2°56.885 132.9 3.1 97 12.5
2011-04-05 12:00:44 51°19.104 2°56.958 141.1 2.5 91 12.3
2011-04-05 12:01:43 51°19.107 2°57.02 146 2.4 84 12.6
2011-04-05 12:02:44 51°19.099 2°57.115 114 5.1 93 12.3
2011-04-05 12:03:44 51°19.132 2°57.267 58.9 7.8 59 12.1
2011-04-05 12:04:44 51°19.225 2°57.522 63.7 13.1 61 12
2011-04-05 12:05:44 51°19.344 2°57.848 61.2 14.4 61 12.2
2011-04-05 12:06:44 51°19.463 2°58.19 63.2 15.4 58 11.9
2011-04-05 12:07:44 51°19.583 2°58.523 62.2 14.2 65 11.8
2011-04-05 12:08:43 51°19.703 2°58.856 63.8 15 60 11.8
2011-04-05 12:09:44 51°19.827 2°59.196 64.4 14.3 63 11.7
2011-04-05 12:10:43 51°19.941 2°59.528 62 14.5 60 11.9
2011-04-05 12:11:44 51°20.057 2°59.88 62.7 14.7 58 11.8
2011-04-05 12:12:43 51°20.174 3°0.221 59.8 15.2 57 12.2
2011-04-05 12:13:44 51°20.297 3°0.573 64.4 15.1 61 12
2011-04-05 12:14:43 51°20.41 3°0.922 63.1 14.9 67 11.8
2011-04-05 12:15:44 51°20.505 3°1.303 73.4 15.1 71 11.8
2011-04-05 12:16:43 51°20.598 3°1.672 67.8 15 68 11.9
2011-04-05 12:17:44 51°20.692 3°2.053 66.1 15 66 11.9
2011-04-05 12:18:43 51°20.785 3°2.416 69.7 15.2 70 12.4
2011-04-05 12:19:44 51°20.88 3°2.794 70.7 15.3 70 12.5
2011-04-05 12:20:43 51°20.973 3°3.165 71.4 15.4 70 12.8
2011-04-05 12:21:44 51°21.069 3°3.551 69.5 15.2 68 12.7
2011-04-05 12:22:43 51°21.164 3°3.923 71.3 15.4 71 12.9
2011-04-05 12:23:44 51°21.261 3°4.307 70.3 15.8 67 13.1
2011-04-05 12:24:44 51°21.352 3°4.691 70.5 15.4 69 13
2011-04-05 12:25:44 51°21.453 3°5.074 70 16 70 13.2
2011-04-05 12:26:44 51°21.548 3°5.457 69.8 15.1 68 13.2
2011-04-05 12:27:44 51°21.643 3°5.838 71.1 15.3 69 13.5
2011-04-05 12:28:44 51°21.743 3°6.217 68.5 15.5 65 13.6
2011-04-05 12:29:43 51°21.841 3°6.585 69 15.5 67 14.2
2011-04-05 12:30:44 51°21.94 3°6.966 71.2 15.4 73 14.4
2011-04-05 12:31:44 51°22.011 3°7.362 76.6 15.9 73 14.5
2011-04-05 12:32:44 51°22.07 3°7.759 79.6 15.3 78 14.6
2011-04-05 12:33:44 51°22.108 3°8.162 84.3 15.6 81 14.5
2011-04-05 12:34:44 51°22.149 3°8.568 84.3 16 79 15.1
2011-04-05 12:35:44 51°22.185 3°8.98 86.6 15.6 83 15.1
2011-04-05 12:36:44 51°22.227 3°9.394 85.7 15.8 80 15.3
2011-04-05 12:37:44 51°22.266 3°9.809 87.8 15.7 81 16.2
2011-04-05 12:38:44 51°22.302 3°10.224 85.3 15.4 80 17
2011-04-05 12:39:44 51°22.341 3°10.641 82.2 15.6 81 21
2011-04-05 12:40:44 51°22.377 3°11.063 85 16.4 86 18.4
2011-04-05 12:41:44 51°22.418 3°11.492 84.1 16.5 82 18.3
2011-04-05 12:42:43 51°22.449 3°11.913 86.7 16.5 83 18
2011-04-05 12:43:44 51°22.481 3°12.356 85.7 16.5 83 17
2011-04-05 12:44:43 51°22.545 3°12.72 61.4 11.4 67 16.2
2011-04-05 12:45:44 51°22.591 3°12.966 74 8.2 77 15.4
2011-04-05 12:46:44 51°22.631 3°13.131 35.3 5.6 61 14.8
2011-04-05 12:47:43 51°22.667 3°13.236 7.7 3.6 76 14.6
2011-04-05 12:48:44 51°22.678 3°13.33 352.6 3.6 79 14.5
2011-04-05 12:49:44 51°22.69 3°13.424 337.5 3.5 79 14.3
2011-04-05 12:50:43 51°22.699 3°13.517 330.5 3.6 82 14.2
2011-04-05 12:51:44 51°22.707 3°13.617 329.7 3.6 85 14.2
2011-04-05 12:52:44 51°22.713 3°13.718 332.7 3.9 84 13.4
2011-04-05 12:53:44 51°22.719 3°13.819 339.1 3.7 86 13.3
2011-04-05 12:54:43 51°22.724 3°13.916 343.6 3.5 87 13
2011-04-05 12:55:44 51°22.73 3°14.015 339.8 3.7 84 13.6
2011-04-05 12:56:44 51°22.753 3°14.079 302 1.9 10 12.9
2011-04-05 12:57:44 51°22.74 3°14.056 236.9 3.6 215 13
2011-04-05 12:58:43 51°22.71 3°13.962 263.8 4.7 263 13.2
2011-04-05 12:59:44 51°22.696 3°13.835 257.7 4.9 254 13.6
2011-04-05 13:00:44 51°22.671 3°13.707 258.4 5.1 253 13.6
2011-04-05 13:01:44 51°22.639 3°13.586 257.4 4.8 254 14.2
2011-04-05 13:02:43 51°22.623 3°13.458 261.4 5.3 260 14.7
2011-04-05 13:03:43 51°22.606 3°13.328 259.9 4.1 258 15
2011-04-05 13:04:44 51°22.597 3°13.277 255.5 0.5 215 15.4
2011-04-05 13:05:44 51°22.596 3°13.29 257 1 82 14.9
2011-04-05 13:06:43 51°22.6 3°13.315 260.7 1.1 72 15
2011-04-05 13:07:43 51°22.605 3°13.337 262.6 0.9 68 14.7
2011-04-05 13:08:44 51°22.61 3°13.355 260.5 0.8 73 14.7
2011-04-05 13:09:44 51°22.615 3°13.375 260 0.7 74 14.7
2011-04-05 13:10:43 51°22.619 3°13.39 260.8 0.4 69 14.7
2011-04-05 13:11:43 51°22.622 3°13.403 259.6 0.6 61 14.7
2011-04-05 13:12:44 51°22.628 3°13.415 263 0.5 48 14.5
2011-04-05 13:13:44 51°22.635 3°13.428 262.4 0.6 50 14.7
2011-04-05 13:14:43 51°22.637 3°13.435 258.5 0.2 83 14.5
2011-04-05 13:15:43 51°22.638 3°13.439 258.7 0.2 74 14.1
2011-04-05 13:16:43 51°22.64 3°13.447 260.5 0.2 56 14.4
2011-04-05 13:17:44 51°22.642 3°13.45 259.3 -999 247 14.5
2011-04-05 13:18:43 51°22.644 3°13.45 260.7 0.2 357 14.6
2011-04-05 13:19:43 51°22.647 3°13.451 261.4 0.3 31 14.8
2011-04-05 13:20:44 51°22.65 3°13.453 260.5 0.2 14 14.1
2011-04-05 13:21:44 51°22.655 3°13.456 260.4 0.1 348 14.2
2011-04-05 13:22:43 51°22.657 3°13.461 260.7 0.3 38 14.6
2011-04-05 13:23:43 51°22.661 3°13.465 261.5 0.2 26 14.6
2011-04-05 13:24:44 51°22.664 3°13.467 261 0.2 45 14.8
2011-04-05 13:25:44 51°22.666 3°13.472 259.6 0.2 48 14.7
2011-04-05 13:26:43 51°22.669 3°13.476 261.4 0.3 29 14.8
2011-04-05 13:27:43 51°22.671 3°13.481 259 0.2 84 14.4
2011-04-05 13:28:44 51°22.673 3°13.486 262.6 0.3 38 14.8
2011-04-05 13:29:44 51°22.699 3°13.495 320 2.8 18 14.3
2011-04-05 13:30:43 51°22.808 3°13.493 337.6 10.5 349 13.8
2011-04-05 13:31:43 51°23.001 3°13.431 338.6 12.2 348 13.3
2011-04-05 13:32:44 51°23.212 3°13.404 348 12.9 -999 14.3
2011-04-05 13:33:44 51°23.425 3°13.395 352 13 1 14.2
2011-04-05 13:34:44 51°23.613 3°13.404 349.3 8.5 6 14.7
2011-04-05 13:35:44 51°23.721 3°13.44 344.5 5.6 15 14.6
2011-04-05 13:36:44 51°23.796 3°13.51 20.7 5.7 45 15
2011-04-05 13:37:44 51°23.835 3°13.647 82.8 5.3 79 14.4
2011-04-05 13:38:43 51°23.843 3°13.777 105.7 4.9 88 14.7
2011-04-05 13:39:44 51°23.847 3°13.906 107.3 4.7 87 14.5
2011-04-05 13:40:44 51°23.856 3°14.028 91.4 4.6 81 15
2011-04-05 13:41:44 51°23.869 3°14.149 99 4.5 82 15.1
2011-04-05 13:42:44 51°23.875 3°14.266 114.2 4.3 89 14.7
2011-04-05 13:43:43 51°23.876 3°14.379 117.9 4.3 90 14.4
2011-04-05 13:44:44 51°23.876 3°14.494 120.6 4.2 93 14.3
2011-04-05 13:45:44 51°23.873 3°14.606 119.8 4.2 92 14.2
2011-04-05 13:46:44 51°23.871 3°14.716 117.3 4.1 91 15.1
2011-04-05 13:47:44 51°23.87 3°14.824 113.6 4.1 89 14.1
2011-04-05 13:48:44 51°23.873 3°14.933 106.9 4.1 88 14.2
2011-04-05 13:49:43 51°23.876 3°15.039 112.4 4 91 14.9
2011-04-05 13:50:43 51°23.877 3°15.144 114 3.9 88 15
2011-04-05 13:51:43 51°23.876 3°15.248 114.8 3.8 92 15.3
2011-04-05 13:52:43 51°23.874 3°15.349 115.9 3.7 94 14.4
2011-04-05 13:53:43 51°23.867 3°15.444 122.1 3.7 98 14.5
2011-04-05 13:54:43 51°23.858 3°15.555 113.9 4.7 96 15
2011-04-05 13:55:44 51°23.848 3°15.674 124.6 4.2 98 14.9
2011-04-05 13:56:44 51°23.837 3°15.782 132.4 4.1 100 14.3
2011-04-05 13:57:43 51°23.825 3°15.88 136.9 3.7 100 14.6
2011-04-05 13:58:44 51°23.812 3°15.98 138.7 3.9 103 14.3
2011-04-05 13:59:44 51°23.791 3°16.087 140.2 5 111 14.5
2011-04-05 14:00:44 51°23.769 3°16.195 144.8 3.8 104 14.5
2011-04-05 14:01:43 51°23.758 3°16.283 146.7 3.3 98 14.4
2011-04-05 14:02:43 51°23.752 3°16.362 153.2 2.8 95 14.5
2011-04-05 14:03:43 51°23.727 3°16.436 182.7 3.3 138 14.4
2011-04-05 14:04:44 51°23.692 3°16.446 243.2 1.9 237 14.3
2011-04-05 14:05:44 51°23.682 3°16.318 259.9 7.4 259 14.2
2011-04-05 14:06:44 51°23.634 3°16.084 251.2 10.2 249 13.6
2011-04-05 14:07:44 51°23.581 3°15.828 255 10.1 255 13.6
2011-04-05 14:08:44 51°23.533 3°15.561 253.9 10.5 252 13.2
2011-04-05 14:09:44 51°23.485 3°15.291 255.6 10.5 255 12.3
2011-04-05 14:10:44 51°23.437 3°15.022 255.5 10.5 255 12.2
2011-04-05 14:11:44 51°23.391 3°14.755 254.8 10.4 254 12
2011-04-05 14:12:43 51°23.345 3°14.492 254.2 10.3 253 12.3
2011-04-05 14:13:44 51°23.298 3°14.222 255.1 10.4 254 12.7
2011-04-05 14:14:44 51°23.252 3°13.954 256.1 10.4 256 12.9
2011-04-05 14:15:44 51°23.208 3°13.689 255.3 10.2 255 13.4
2011-04-05 14:16:44 51°23.162 3°13.421 255.3 10.6 256 13.6
2011-04-05 14:17:44 51°23.116 3°13.15 254.1 10.4 256 13.2
2011-04-05 14:18:44 51°23.071 3°12.878 256.3 10.6 257 14.5
2011-04-05 14:19:43 51°23.029 3°12.609 254.6 10.6 255 14.5
2011-04-05 14:20:44 51°22.984 3°12.331 255.3 10.6 257 14.9
2011-04-05 14:21:44 51°22.94 3°12.053 255.6 10.8 256 15.3
2011-04-05 14:22:44 51°22.896 3°11.772 254.9 11 256 15.4
2011-04-05 14:23:44 51°22.853 3°11.488 255.5 11.1 256 16
2011-04-05 14:24:44 51°22.811 3°11.203 255.5 10.9 256 16.1
2011-04-05 14:25:44 51°22.767 3°10.921 255.1 10.9 257 16.7
2011-04-05 14:26:44 51°22.726 3°10.642 255.1 10.5 257 17.1
2011-04-05 14:27:44 51°22.682 3°10.361 254.9 10.7 255 18.2
2011-04-05 14:28:43 51°22.637 3°10.09 254.4 10.8 253 21.4
2011-04-05 14:29:43 51°22.549 3°9.846 238.5 10.6 235 16.6
2011-04-05 14:30:43 51°22.445 3°9.62 234.3 10.5 231 16.2
2011-04-05 14:31:44 51°22.322 3°9.413 230.1 10.6 226 15.9
2011-04-05 14:32:44 51°22.197 3°9.21 229.4 10.7 226 15.4
2011-04-05 14:33:44 51°22.073 3°9.005 229.9 10.8 227 15.2
2011-04-05 14:34:44 51°21.952 3°8.792 229.5 10.8 227 14.9
2011-04-05 14:35:44 51°21.828 3°8.574 230.2 11.1 228 14.1
2011-04-05 14:36:44 51°21.707 3°8.355 230.7 11.1 230 13.5
2011-04-05 14:37:44 51°21.583 3°8.134 229.6 11.2 228 13.1
2011-04-05 14:38:44 51°21.459 3°7.911 230.2 11.2 228 12.1
2011-04-05 14:39:43 51°21.332 3°7.697 227.1 11.3 226 11.7
2011-04-05 14:40:44 51°21.198 3°7.472 227.4 11.5 226 11.4
2011-04-05 14:41:44 51°21.068 3°7.255 226.5 11.4 224 10.8
2011-04-05 14:42:44 51°20.937 3°7.04 227.5 11.2 226 10.3
2011-04-05 14:43:44 51°20.805 3°6.825 226.6 11.3 226 10.4
2011-04-05 14:44:44 51°20.674 3°6.61 228.1 11.3 227 10.5
2011-04-05 14:45:44 51°20.544 3°6.391 227.7 11.3 227 10.1
2011-04-05 14:46:44 51°20.412 3°6.173 227.4 11.3 226 10.6
2011-04-05 14:47:44 51°20.282 3°5.956 226.9 11.3 224 10.7
2011-04-05 14:48:43 51°20.156 3°5.747 227.5 11 226 10.2
2011-04-05 14:49:44 51°20.026 3°5.53 226.9 11.1 226 10.4
2011-04-05 14:50:43 51°19.904 3°5.308 230.2 11.4 230 10.7
2011-04-05 14:51:44 51°19.779 3°5.072 230.4 11.5 230 10.8
2011-04-05 14:52:44 51°19.657 3°4.837 229.2 11.6 229 10.6
2011-04-05 14:53:44 51°19.534 3°4.61 232 11.1 231 10.9
2011-04-05 14:54:44 51°19.413 3°4.382 230.8 11.2 231 10.7
2011-04-05 14:55:44 51°19.29 3°4.152 230.7 11.5 230 10.8
2011-04-05 14:56:44 51°19.167 3°3.92 229.9 11.4 229 10.4
2011-04-05 14:57:43 51°19.047 3°3.698 230.7 11.2 229 10.7
2011-04-05 14:58:44 51°18.924 3°3.469 230.7 11.2 229 10.8
2011-04-05 14:59:44 51°18.801 3°3.241 230 11.2 228 10.5
2011-04-05 15:00:44 51°18.68 3°3.018 229.8 11 230 11.1
2011-04-05 15:01:44 51°18.56 3°2.794 230.9 11 230 11.4
2011-04-05 15:02:44 51°18.44 3°2.571 229.7 11.1 229 11.4
2011-04-05 15:03:44 51°18.32 3°2.351 229.8 10.9 228 11.1
2011-04-05 15:04:43 51°18.202 3°2.135 230.6 10.9 229 11.6
2011-04-05 15:05:44 51°18.08 3°1.908 229.4 11.1 229 11.6
2011-04-05 15:06:43 51°17.961 3°1.687 230.3 11 229 11.7
2011-04-05 15:07:44 51°17.84 3°1.46 229.8 11 229 11.5
2011-04-05 15:08:43 51°17.723 3°1.242 230.5 11 229 11.9
2011-04-05 15:09:44 51°17.601 3°1.015 230.8 11.1 230 11.9
2011-04-05 15:10:44 51°17.481 3°0.792 230.2 11.2 230 11.4
2011-04-05 15:11:43 51°17.364 3°0.563 237.4 11.2 239 11.1
2011-04-05 15:12:44 51°17.271 3°0.299 240.2 11.2 239 11.4
2011-04-05 15:13:43 51°17.181 3°0.045 240.6 11.3 240 10.9
2011-04-05 15:14:44 51°17.104 2°59.769 251.4 11.4 253 11.6
2011-04-05 15:15:43 51°17.032 2°59.496 244.1 11.4 245 11.7
2011-04-05 15:16:44 51°16.968 2°59.209 251.9 11.3 252 11.5
2011-04-05 15:17:43 51°16.908 2°58.928 250.8 11.3 251 11.6
2011-04-05 15:18:44 51°16.845 2°58.638 250.3 11.4 250 12.2
2011-04-05 15:19:44 51°16.771 2°58.361 243.2 11.2 237 11.4
2011-04-05 15:20:44 51°16.633 2°58.155 225 11.5 223 11.2
2011-04-05 15:21:44 51°16.494 2°57.942 225.8 11.6 225 11.2
2011-04-05 15:22:43 51°16.357 2°57.733 224 11.6 222 10.8
2011-04-05 15:23:44 51°16.217 2°57.514 228.5 11.6 229 10.7
2011-04-05 15:24:43 51°16.095 2°57.284 230.3 11.6 230 10.4
2011-04-05 15:25:44 51°15.982 2°57.029 236 11.6 236 10.3
2011-04-05 15:26:43 51°15.873 2°56.781 236 11.6 236 10.2
2011-04-05 15:27:44 51°15.763 2°56.525 236 11.6 236 9.7
2011-04-05 15:28:44 51°15.652 2°56.276 235.8 11.5 235 10
2011-04-05 15:29:44 51°15.539 2°56.031 234.2 11.5 234 9.7
2011-04-05 15:30:44 51°15.425 2°55.791 232.8 11.2 232 9.8
2011-04-05 15:31:44 51°15.303 2°55.565 228.1 11.4 227 10.5
2011-04-05 15:32:44 51°15.173 2°55.346 225.6 11.4 225 10.9
2011-04-05 15:33:43 51°15.032 2°55.155 216.3 11.4 213 11.4
2011-04-05 15:34:44 51°14.853 2°55.042 202.6 11.4 197 11.6
2011-04-05 15:35:43 51°14.672 2°54.967 188.1 11.6 182 12.7
2011-04-05 15:36:44 51°14.487 2°55.069 144.8 12.4 146 13.2
2011-04-05 15:37:43 51°14.319 2°55.245 148.2 12 148 12.6
2011-04-05 15:38:44 51°14.149 2°55.391 154 10.9 153 -999
2011-04-05 15:39:44 51°13.995 2°55.511 155.9 8.5 156 12.8
2011-04-05 15:40:43 51°13.897 2°55.585 155 5.5 153 12.9
2011-04-05 15:41:44 51°13.818 2°55.646 158.3 5.2 155 12.9
2011-04-05 15:42:43 51°13.746 2°55.717 137.1 5.1 135 13.4
2011-04-05 15:43:44 51°13.702 2°55.818 121.7 4 119 12.9
2011-04-05 15:44:43 51°13.679 2°55.906 114.4 3.9 112 10.6
2011-04-05 15:45:47 51°13.664 2°55.954 131.4 0.3 139 -999